Date,TemperatureHighF,TemperatureAvgF,TemperatureLowF,DewpointHighF,DewpointAvgF,DewpointLowF,HumidityHigh,HumidityAvg,HumidityLow,PressureMaxIn,PressureMinIn,WindSpeedMaxMPH,WindSpeedAvgMPH,GustSpeedMaxMPH,PrecipitationSumIn
2013-4-1,69,52,33,45,38,29,85,62,40,29.98,29.84,3,0,3,0.00
2013-4-2,69,54,37,49,41,32,85,65,43,30.12,29.93,3,0,3,0.00
2013-4-3,70,54,40,49,42,35,88,66,36,30.12,29.95,15,1,15,0.49
2013-4-4,61,52,42,50,43,37,85,74,59,29.99,29.70,13,0,13,0.06
2013-4-5,64,54,47,51,45,42,90,74,49,29.89,29.83,20,3,20,0.10
2013-4-6,58,51,47,49,45,42,90,81,61,29.93,29.85,14,0,14,0.30
2013-4-7,52,47,41,44,42,37,89,81,64,29.85,29.62,17,2,17,0.32
2013-4-8,51,43,33,41,36,29,90,79,54,30.17,29.77,24,3,24,0.04
2013-4-9,59,43,31,38,32,27,90,70,40,30.34,30.17,10,1,10,0.30
2013-4-10,56,48,41,48,41,35,85,75,59,30.22,29.85,14,1,14,0.08
2013-4-11,57,47,34,42,35,28,84,65,40,30.13,30.01,20,2,20,0.08
2013-4-12,65,48,30,42,35,26,85,64,37,30.11,29.63,18,1,18,1.67
2013-4-13,52,45,38,42,34,26,89,67,38,29.87,29.60,30,5,30,0.12
2013-4-14,54,43,35,38,32,28,81,66,46,29.93,29.80,20,4,20,0.00
2013-4-15,56,43,31,35,28,21,84,57,34,29.98,29.81,18,4,18,0.04
2013-4-16,54,43,26,32,21,18,77,45,28,30.26,29.98,20,5,20,0.00
2013-4-17,56,42,24,33,22,18,77,49,27,30.39,30.25,13,1,13,0.00
2013-4-18,56,42,27,36,29,20,77,62,39,30.37,30.18,40,0,40,0.64
2013-4-19,52,47,42,48,42,36,89,84,73,30.19,29.95,8,0,8,0.54
2013-4-20,60,51,46,49,44,41,92,80,51,30.10,29.98,16,2,16,0.02
2013-4-21,60,50,43,46,41,37,88,73,47,30.14,29.97,21,1,21,0.10
2013-4-22,57,47,32,44,31,26,86,56,31,30.38,30.14,52,3,15,0.57
2013-4-23,63,44,28,37,28,23,82,57,27,30.37,30.14,57,1,57,0.69
2013-4-24,67,50,29,40,32,23,82,55,30,30.35,29.99,13,1,13,0.00
2013-4-25,72,54,12,44,36,4,82,55,27,30.08,29.93,20,2,20,0.00
2013-4-26,77,57,35,48,40,30,83,57,30,30.22,30.07,0,0,0,0.00
2013-4-27,70,57,40,51,43,35,84,62,31,30.19,29.99,36,1,36,1.17
2013-4-28,68,58,50,50,45,37,86,64,41,30.11,29.90,16,0,16,0.04
2013-4-29,60,51,39,48,37,25,87,61,31,29.98,29.78,37,6,37,0.18
2013-4-30,56,43,14,39,29,-5,81,60,35,30.38,29.98,30,4,30,0.00